createdAt,value
2023-03-24T00:00:24.116Z,13.20
2023-03-24T00:02:53.086Z,13.16
2023-03-24T00:05:22.627Z,13.13
2023-03-24T00:07:55.049Z,13.11
2023-03-24T00:10:23.528Z,13.06
2023-03-24T00:12:51.644Z,13.03
2023-03-24T00:15:21.674Z,13.01
2023-03-24T00:17:50.672Z,12.98
2023-03-24T00:20:20.406Z,12.96
2023-03-24T00:22:56.975Z,12.94
2023-03-24T00:25:29.196Z,12.91
2023-03-24T00:27:58.048Z,12.86
2023-03-24T00:30:26.475Z,12.84
2023-03-24T00:32:54.594Z,12.83
2023-03-24T00:35:23.836Z,12.82
2023-03-24T00:37:52.275Z,12.79
2023-03-24T00:40:21.467Z,12.78
2023-03-24T00:42:50.034Z,12.76
2023-03-24T00:45:20.656Z,12.75
2023-03-24T00:47:54.667Z,12.74
2023-03-24T00:50:27.138Z,12.71
2023-03-24T00:52:58.262Z,12.68
2023-03-24T00:55:28.770Z,12.64
2023-03-24T00:57:57.483Z,12.62
2023-03-24T01:00:27.046Z,12.59
2023-03-24T01:02:57.594Z,12.55
2023-03-24T01:05:28.486Z,12.50
2023-03-24T01:08:03.741Z,12.48
2023-03-24T01:10:35.117Z,12.43
2023-03-24T01:13:04.068Z,12.39
2023-03-24T01:15:33.616Z,12.37
2023-03-24T01:18:02.600Z,12.36
2023-03-24T01:20:33.384Z,12.34
2023-03-24T01:23:02.134Z,12.33
2023-03-24T01:25:30.666Z,12.33
2023-03-24T01:27:59.083Z,12.32
2023-03-24T01:30:28.227Z,12.32
2023-03-24T01:32:56.989Z,12.31
2023-03-24T01:35:42.385Z,12.29
2023-03-24T01:38:12.486Z,12.29
2023-03-24T01:40:44.260Z,12.29
2023-03-24T01:43:23.740Z,12.29
2023-03-24T01:45:54.811Z,12.28
2023-03-24T01:48:43.916Z,12.26
2023-03-24T01:51:14.928Z,12.25
2023-03-24T01:53:47.613Z,12.25
2023-03-24T01:56:18.474Z,12.22
2023-03-24T01:58:53.884Z,12.28
2023-03-24T02:01:44.870Z,12.30
2023-03-24T02:04:38.933Z,12.24
2023-03-24T02:07:24.428Z,12.19
2023-03-24T02:09:54.318Z,12.22
2023-03-24T02:12:23.018Z,12.23
2023-03-24T02:14:53.964Z,12.22
2023-03-24T02:17:45.747Z,12.19
2023-03-24T02:20:23.374Z,12.19
2023-03-24T02:23:40.591Z,12.18
2023-03-24T02:26:15.507Z,12.18
2023-03-24T02:28:57.046Z,12.14
2023-03-24T02:31:34.276Z,12.14
2023-03-24T02:34:24.295Z,12.15
2023-03-24T02:37:11.667Z,12.15
2023-03-24T02:39:41.868Z,12.15
2023-03-24T02:42:22.677Z,12.15
2023-03-24T02:44:59.729Z,12.17
2023-03-24T02:47:36.448Z,12.15
2023-03-24T02:50:26.453Z,12.14
2023-03-24T02:53:05.745Z,12.14
2023-03-24T02:56:03.581Z,12.13
2023-03-24T02:58:47.526Z,12.11
2023-03-24T03:01:32.779Z,12.10
2023-03-24T03:04:37.244Z,12.09
2023-03-24T03:07:06.558Z,12.08
2023-03-24T03:09:34.900Z,12.07
2023-03-24T03:12:03.135Z,12.05
2023-03-24T03:14:39.308Z,12.05
2023-03-24T03:17:10.784Z,12.04
2023-03-24T03:19:45.356Z,12.00
2023-03-24T03:22:16.912Z,12.00
2023-03-24T03:24:46.895Z,12.00
2023-03-24T03:27:20.309Z,12.03
2023-03-24T03:29:51.303Z,12.03
2023-03-24T03:32:24.878Z,12.07
2023-03-24T03:34:56.745Z,12.10
2023-03-24T03:37:44.880Z,12.09
2023-03-24T03:40:31.343Z,12.08
2023-03-24T03:43:05.340Z,12.05
2023-03-24T03:45:35.711Z,12.04
2023-03-24T03:48:05.461Z,12.05
2023-03-24T03:50:33.699Z,12.03
2023-03-24T03:53:06.954Z,12.02
2023-03-24T03:55:35.583Z,12.00
2023-03-24T03:58:06.757Z,11.99
2023-03-24T04:00:42.136Z,11.98
2023-03-24T04:03:58.940Z,11.97
2023-03-24T04:06:41.118Z,11.95
2023-03-24T04:09:26.211Z,11.93
2023-03-24T04:12:29.044Z,11.95
2023-03-24T04:15:47.464Z,11.95
2023-03-24T04:18:31.723Z,11.90
2023-03-24T04:21:28.629Z,11.89
2023-03-24T04:24:29.197Z,11.88
2023-03-24T04:27:09.503Z,11.90
2023-03-24T04:30:10.486Z,11.90
2023-03-24T04:32:43.280Z,11.93
2023-03-24T04:35:14.447Z,11.94
2023-03-24T04:38:05.964Z,11.98
2023-03-24T04:40:36.768Z,11.98
2023-03-24T04:43:05.824Z,12.01
2023-03-24T04:45:37.485Z,12.05
2023-03-24T04:48:20.879Z,12.08
2023-03-24T04:51:24.802Z,12.09
2023-03-24T04:54:20.038Z,12.04
2023-03-24T04:56:53.092Z,11.98
2023-03-24T04:59:34.656Z,11.97
2023-03-24T05:02:04.720Z,11.96
2023-03-24T05:04:42.591Z,11.97
2023-03-24T05:07:17.712Z,11.99
2023-03-24T05:09:48.158Z,11.99
2023-03-24T05:12:18.667Z,11.95
2023-03-24T05:15:19.639Z,11.95
2023-03-24T05:17:51.879Z,11.95
2023-03-24T05:20:20.682Z,11.98
2023-03-24T05:22:50.720Z,12.03
2023-03-24T05:25:21.571Z,12.05
2023-03-24T05:27:53.087Z,12.10
2023-03-24T05:30:24.006Z,12.15
2023-03-24T05:32:54.221Z,12.21
2023-03-24T05:35:22.623Z,12.32
2023-03-24T05:37:51.222Z,12.40
2023-03-24T05:40:19.467Z,12.46
2023-03-24T05:42:54.630Z,12.53
2023-03-24T05:45:29.553Z,12.59
2023-03-24T05:47:58.213Z,12.63
2023-03-24T05:50:38.138Z,12.72
2023-03-24T05:53:07.192Z,12.74
2023-03-24T05:56:11.925Z,12.80
2023-03-24T05:59:01.091Z,12.86
2023-03-24T06:01:48.387Z,12.89
2023-03-24T06:04:30.058Z,12.94
2023-03-24T06:07:08.999Z,13.08
2023-03-24T06:09:39.720Z,13.22
2023-03-24T06:12:09.383Z,13.34
2023-03-24T06:14:38.752Z,13.43
2023-03-24T06:17:15.157Z,13.49
2023-03-24T06:19:51.238Z,13.50
2023-03-24T06:22:33.052Z,13.56
2023-03-24T06:25:03.817Z,13.63
2023-03-24T06:27:32.876Z,13.65
2023-03-24T06:30:01.084Z,13.62
2023-03-24T06:32:31.014Z,13.58
2023-03-24T06:35:01.085Z,13.56
2023-03-24T06:37:43.037Z,13.59
2023-03-24T06:40:15.948Z,13.61
2023-03-24T06:42:49.920Z,13.59
2023-03-24T06:45:19.263Z,13.62
2023-03-24T06:47:48.022Z,13.67
2023-03-24T06:50:16.212Z,13.68
2023-03-24T06:52:44.226Z,13.67
2023-03-24T06:55:13.228Z,13.64
2023-03-24T06:57:43.558Z,13.64
2023-03-24T07:00:35.547Z,13.66
2023-03-24T07:03:22.748Z,13.68
2023-03-24T07:06:20.517Z,13.75
2023-03-24T07:08:52.434Z,13.77
2023-03-24T07:11:22.518Z,13.79
2023-03-24T07:13:56.597Z,13.81
2023-03-24T07:16:27.827Z,13.79
2023-03-24T07:19:23.786Z,13.82
2023-03-24T07:22:08.386Z,13.86
2023-03-24T07:24:53.603Z,13.94
2023-03-24T07:27:41.656Z,14.03
2023-03-24T07:30:11.519Z,14.05
2023-03-24T07:32:44.813Z,14.04
2023-03-24T07:35:13.248Z,14.10
2023-03-24T07:37:42.682Z,14.15
2023-03-24T07:40:13.221Z,14.20
2023-03-24T07:42:42.698Z,14.25
2023-03-24T07:45:49.842Z,14.32
2023-03-24T07:48:19.822Z,14.36
2023-03-24T07:50:49.080Z,14.43
2023-03-24T07:53:45.826Z,14.45
2023-03-24T07:56:15.985Z,14.45
2023-03-24T07:58:51.009Z,14.46
2023-03-24T08:01:31.957Z,14.42
2023-03-24T08:04:04.800Z,14.40
2023-03-24T08:07:09.727Z,14.44
2023-03-24T08:09:37.930Z,14.43
2023-03-24T08:12:13.834Z,14.43
2023-03-24T08:14:48.174Z,14.44
2023-03-24T08:17:16.136Z,14.48
2023-03-24T08:19:58.473Z,14.52
2023-03-24T08:22:30.679Z,14.56
2023-03-24T08:24:58.594Z,14.59
2023-03-24T08:27:30.029Z,14.66
2023-03-24T08:29:58.237Z,14.74
2023-03-24T08:32:26.230Z,14.83
2023-03-24T08:34:54.468Z,14.95
2023-03-24T08:37:22.508Z,15.07
2023-03-24T08:39:51.625Z,15.16
2023-03-24T08:42:19.577Z,15.27
2023-03-24T08:44:47.504Z,15.39
2023-03-24T08:47:15.389Z,15.49
2023-03-24T08:49:43.455Z,15.60
2023-03-24T08:52:12.798Z,15.72
2023-03-24T08:54:41.413Z,15.83
2023-03-24T08:57:17.330Z,15.96
2023-03-24T08:59:46.654Z,16.09
2023-03-24T09:02:15.493Z,16.16
2023-03-24T09:04:46.092Z,16.22
2023-03-24T09:07:14.456Z,16.26
2023-03-24T09:09:42.637Z,16.31
2023-03-24T09:12:13.354Z,16.37
2023-03-24T09:14:42.129Z,16.47
2023-03-24T09:17:10.123Z,16.60
2023-03-24T09:19:47.437Z,16.70
2023-03-24T09:22:16.786Z,16.74
2023-03-24T09:24:44.913Z,16.80
2023-03-24T09:27:13.341Z,16.85
2023-03-24T09:29:41.480Z,16.89
2023-03-24T09:32:11.346Z,16.97
2023-03-24T09:34:39.340Z,17.09
2023-03-24T09:37:07.910Z,17.20
2023-03-24T09:40:29.107Z,17.21
2023-03-24T09:43:24.521Z,17.57
2023-03-24T09:45:56.032Z,17.68
2023-03-24T09:48:30.114Z,17.72
2023-03-24T09:51:07.728Z,17.78
2023-03-24T09:53:39.380Z,17.82
2023-03-24T09:56:16.297Z,17.84
2023-03-24T09:58:45.523Z,17.92
2023-03-24T10:01:15.483Z,18.04
2023-03-24T10:03:44.668Z,18.19
2023-03-24T10:06:23.278Z,18.32
2023-03-24T10:09:14.928Z,18.50
2023-03-24T10:12:11.528Z,18.68
2023-03-24T10:14:50.151Z,18.84
2023-03-24T10:17:57.164Z,18.84
2023-03-24T10:20:42.062Z,18.89
2023-03-24T10:23:41.545Z,18.85
2023-03-24T10:26:15.718Z,18.85
2023-03-24T10:28:55.039Z,18.87
2023-03-24T10:31:30.928Z,18.95
2023-03-24T10:33:59.372Z,19.06
2023-03-24T10:36:28.111Z,19.17
2023-03-24T10:38:58.732Z,19.28
2023-03-24T10:41:29.587Z,19.36
2023-03-24T10:43:57.582Z,19.40
2023-03-24T10:46:28.327Z,19.41
2023-03-24T10:49:15.033Z,19.44
2023-03-24T10:51:51.527Z,19.55
2023-03-24T10:54:22.158Z,19.51
2023-03-24T10:57:05.061Z,19.44
2023-03-24T10:59:36.868Z,19.36
2023-03-24T11:02:11.508Z,19.41
2023-03-24T11:04:43.989Z,19.44
2023-03-24T11:07:17.608Z,19.44
2023-03-24T11:10:06.230Z,19.46
2023-03-24T11:12:39.129Z,19.40
2023-03-24T11:15:22.856Z,19.32
2023-03-24T11:18:01.896Z,19.34
2023-03-24T11:20:39.677Z,19.42
2023-03-24T11:23:21.263Z,19.47
2023-03-24T11:26:30.367Z,19.37
2023-03-24T11:29:11.104Z,19.31
2023-03-24T11:31:40.086Z,19.38
2023-03-24T11:34:10.971Z,19.48
2023-03-24T11:36:45.335Z,19.53
2023-03-24T11:39:17.549Z,19.56
2023-03-24T11:41:53.163Z,19.62
2023-03-24T11:44:23.898Z,19.74
2023-03-24T11:46:57.621Z,19.83
2023-03-24T11:49:29.314Z,19.91
2023-03-24T11:51:57.524Z,20.03
2023-03-24T11:54:34.253Z,20.19
2023-03-24T11:57:11.926Z,20.42
2023-03-24T11:59:51.038Z,20.56
2023-03-24T12:02:24.943Z,20.48
2023-03-24T12:05:26.357Z,20.44
2023-03-24T12:08:04.248Z,20.53
2023-03-24T12:10:38.060Z,20.55
2023-03-24T12:13:25.970Z,20.49
2023-03-24T12:16:04.376Z,20.45
2023-03-24T12:18:45.695Z,20.45
2023-03-24T12:21:17.075Z,20.46
2023-03-24T12:23:58.693Z,20.43
2023-03-24T12:26:27.940Z,20.44
2023-03-24T12:29:21.682Z,20.47
2023-03-24T12:32:08.502Z,20.45
2023-03-24T12:34:48.147Z,20.40
2023-03-24T12:37:31.651Z,20.41
2023-03-24T12:40:34.732Z,20.35
2023-03-24T12:43:27.275Z,20.37
2023-03-24T12:45:55.832Z,20.46
2023-03-24T12:48:58.380Z,20.59
2023-03-24T12:51:44.966Z,20.78
2023-03-24T12:54:26.275Z,20.81
2023-03-24T12:57:24.933Z,20.76
2023-03-24T13:00:14.433Z,20.79
2023-03-24T13:02:47.216Z,20.84
2023-03-24T13:05:19.253Z,20.87
2023-03-24T13:07:53.969Z,20.94
2023-03-24T13:10:25.780Z,20.94
2023-03-24T13:13:06.241Z,20.83
2023-03-24T13:15:37.625Z,20.84
2023-03-24T13:18:12.182Z,20.91
2023-03-24T13:20:48.613Z,20.90
2023-03-24T13:23:44.896Z,20.89
2023-03-24T13:26:35.247Z,20.88
2023-03-24T13:29:03.534Z,21.02
2023-03-24T13:31:37.616Z,21.22
2023-03-24T13:34:06.506Z,21.29
2023-03-24T13:36:48.893Z,21.31
2023-03-24T13:39:20.931Z,21.45
2023-03-24T13:41:51.645Z,21.54
2023-03-24T13:44:36.265Z,21.57
2023-03-24T13:47:15.905Z,21.47
2023-03-24T13:50:01.425Z,21.30
2023-03-24T13:52:35.356Z,21.07
2023-03-24T13:55:27.840Z,20.82
2023-03-24T13:57:58.607Z,20.66
2023-03-24T14:00:27.586Z,20.55
2023-03-24T14:03:05.269Z,20.48
2023-03-24T14:05:42.230Z,20.44
2023-03-24T14:08:11.373Z,20.40
2023-03-24T14:10:44.894Z,20.32
2023-03-24T14:13:12.891Z,20.25
2023-03-24T14:15:52.305Z,20.23
2023-03-24T14:18:24.039Z,20.18
2023-03-24T14:20:56.480Z,20.19
2023-03-24T14:23:34.038Z,20.18
2023-03-24T14:26:20.013Z,20.15
2023-03-24T14:28:52.892Z,20.11
2023-03-24T14:31:38.529Z,20.11
2023-03-24T14:34:20.441Z,20.04
2023-03-24T14:36:50.333Z,19.93
2023-03-24T14:39:36.758Z,19.89
2023-03-24T14:42:28.169Z,19.86
2023-03-24T14:44:59.091Z,19.81
2023-03-24T14:47:29.889Z,19.79
2023-03-24T14:49:59.912Z,19.75
2023-03-24T14:52:36.251Z,19.72
2023-03-24T14:55:12.502Z,19.63
2023-03-24T14:57:42.483Z,19.53
2023-03-24T15:00:20.182Z,19.45
2023-03-24T15:02:52.682Z,19.42
2023-03-24T15:05:41.370Z,19.39
2023-03-24T15:08:21.122Z,19.36
2023-03-24T15:11:00.653Z,19.30
2023-03-24T15:13:34.661Z,19.26
2023-03-24T15:16:16.943Z,19.21
2023-03-24T15:19:01.350Z,19.22
2023-03-24T15:21:37.261Z,19.17
2023-03-24T15:24:21.117Z,19.14
2023-03-24T15:26:52.880Z,19.10
2023-03-24T15:29:21.222Z,19.03
2023-03-24T15:31:49.762Z,19.01
2023-03-24T15:34:34.074Z,18.92
2023-03-24T15:37:07.902Z,18.94
2023-03-24T15:39:37.296Z,18.94
2023-03-24T15:42:07.055Z,18.89
2023-03-24T15:44:39.516Z,18.84
2023-03-24T15:47:23.001Z,18.82
2023-03-24T15:49:58.995Z,18.79
2023-03-24T15:52:31.239Z,18.77
2023-03-24T15:55:06.245Z,18.72
2023-03-24T15:57:40.958Z,18.70
2023-03-24T16:00:20.432Z,18.66
2023-03-24T16:02:53.775Z,18.63
2023-03-24T16:05:26.904Z,18.59
2023-03-24T16:08:08.009Z,18.57
2023-03-24T16:10:42.928Z,18.58
2023-03-24T16:13:17.244Z,18.53
2023-03-24T16:16:00.442Z,18.46
2023-03-24T16:18:37.213Z,18.39
2023-03-24T16:21:10.980Z,18.38
2023-03-24T16:23:43.760Z,18.31
2023-03-24T16:26:22.865Z,18.26
2023-03-24T16:28:52.644Z,18.28
2023-03-24T16:31:27.124Z,18.29
2023-03-24T16:33:57.913Z,18.27
2023-03-24T16:36:28.092Z,18.24
2023-03-24T16:38:57.811Z,18.22
2023-03-24T16:41:25.915Z,18.21
2023-03-24T16:43:54.395Z,18.19
2023-03-24T16:46:27.126Z,18.16
2023-03-24T16:48:56.698Z,18.15
2023-03-24T16:51:24.915Z,18.11
2023-03-24T16:53:55.646Z,18.09
2023-03-24T16:56:24.511Z,18.06
2023-03-24T16:58:54.551Z,18.03
2023-03-24T17:01:33.797Z,18.00
2023-03-24T17:04:12.007Z,17.99
2023-03-24T17:06:44.585Z,17.95
2023-03-24T17:09:13.069Z,17.92
2023-03-24T17:11:42.993Z,17.90
2023-03-24T17:14:16.611Z,17.89
2023-03-24T17:16:46.659Z,17.87
2023-03-24T17:19:16.615Z,17.87
2023-03-24T17:21:52.884Z,17.87
2023-03-24T17:24:21.306Z,17.88
2023-03-24T17:26:49.445Z,17.87
2023-03-24T17:29:17.578Z,17.88
2023-03-24T17:31:45.696Z,17.87
2023-03-24T17:36:46.438Z,17.84
2023-03-24T17:39:16.154Z,17.85
2023-03-24T17:41:48.550Z,17.83
2023-03-24T17:44:16.500Z,17.87
2023-03-24T17:46:44.570Z,17.89
2023-03-24T17:49:12.574Z,17.90
2023-03-24T17:51:40.473Z,17.89
2023-03-24T17:54:11.914Z,17.88
2023-03-24T17:56:41.155Z,17.84
2023-03-24T17:59:11.118Z,17.80
2023-03-24T18:01:40.472Z,17.74
2023-03-24T18:04:09.064Z,17.70
2023-03-24T18:06:38.582Z,17.65
2023-03-24T18:09:08.827Z,17.59
2023-03-24T18:11:37.033Z,17.56
2023-03-24T18:14:05.310Z,17.53
2023-03-24T18:16:35.702Z,17.50
2023-03-24T18:19:04.303Z,17.45
2023-03-24T18:21:34.943Z,17.43
2023-03-24T18:24:04.515Z,17.40
2023-03-24T18:26:33.769Z,17.39
2023-03-24T18:29:02.476Z,17.37
2023-03-24T18:31:31.730Z,17.35
2023-03-24T18:33:59.981Z,17.34
2023-03-24T18:36:29.189Z,17.32
2023-03-24T18:38:58.565Z,17.32
2023-03-24T18:41:28.451Z,17.30
2023-03-24T18:43:58.306Z,17.26
2023-03-24T18:46:30.563Z,17.24
2023-03-24T18:48:58.852Z,17.21
2023-03-24T18:51:28.238Z,17.19
2023-03-24T18:53:56.952Z,17.18
2023-03-24T18:56:25.535Z,17.14
2023-03-24T18:58:53.505Z,17.08
2023-03-24T19:01:23.246Z,16.97
2023-03-24T19:03:52.466Z,16.92
2023-03-24T19:06:22.087Z,16.87
2023-03-24T19:08:52.351Z,16.83
2023-03-24T19:11:20.803Z,16.78
2023-03-24T19:13:58.074Z,16.72
2023-03-24T19:16:26.615Z,16.65
2023-03-24T19:18:57.861Z,16.60
2023-03-24T19:21:27.541Z,16.55
2023-03-24T19:23:57.142Z,16.51
2023-03-24T19:26:25.990Z,16.47
2023-03-24T19:28:57.692Z,16.46
2023-03-24T19:31:25.654Z,16.45
2023-03-24T19:33:55.087Z,16.43
2023-03-24T19:36:23.068Z,16.40
2023-03-24T19:38:51.557Z,16.37
2023-03-24T19:41:26.265Z,16.33
2023-03-24T19:43:54.272Z,16.31
2023-03-24T19:46:24.697Z,16.32
2023-03-24T19:48:52.676Z,16.33
2023-03-24T19:51:21.373Z,16.34
2023-03-24T19:53:50.331Z,16.34
2023-03-24T19:56:20.782Z,16.34
2023-03-24T19:58:53.106Z,16.34
2023-03-24T20:01:23.781Z,16.35
2023-03-24T20:03:52.092Z,16.35
2023-03-24T20:06:20.115Z,16.31
2023-03-24T20:08:49.421Z,16.36
2023-03-24T20:11:18.116Z,16.39
2023-03-24T20:13:48.338Z,16.41
2023-03-24T20:16:16.366Z,16.42
2023-03-24T20:18:44.266Z,16.44
2023-03-24T20:21:18.432Z,16.46
2023-03-24T20:23:46.632Z,16.47
2023-03-24T20:26:19.658Z,16.46
2023-03-24T20:28:48.122Z,16.46
2023-03-24T20:31:16.574Z,16.45
2023-03-24T20:33:46.391Z,16.44
2023-03-24T20:36:14.758Z,16.44
2023-03-24T20:38:42.661Z,16.43
2023-03-24T20:41:10.645Z,16.43
2023-03-24T20:43:39.248Z,16.42
2023-03-24T20:46:09.165Z,16.41
2023-03-24T20:48:41.313Z,16.40
2023-03-24T20:51:09.592Z,16.39
2023-03-24T20:53:38.282Z,16.36
2023-03-24T20:56:10.099Z,16.34
2023-03-24T20:58:38.770Z,16.32
2023-03-24T21:01:11.965Z,16.29
2023-03-24T21:03:40.892Z,16.27
2023-03-24T21:06:10.719Z,16.24
2023-03-24T21:08:38.881Z,16.18
2023-03-24T21:11:11.496Z,16.18
2023-03-24T21:13:41.322Z,16.17
2023-03-24T21:16:09.732Z,16.18
2023-03-24T21:18:39.519Z,16.17
2023-03-24T21:21:12.556Z,16.16
2023-03-24T21:23:42.046Z,16.14
2023-03-24T21:26:15.746Z,16.14
2023-03-24T21:28:45.443Z,16.13
2023-03-24T21:31:19.055Z,16.12
2023-03-24T21:33:47.204Z,16.11
2023-03-24T21:36:15.622Z,16.09
2023-03-24T21:38:44.508Z,16.09
2023-03-24T21:41:12.784Z,16.08
2023-03-24T21:43:41.018Z,16.09
2023-03-24T21:46:20.532Z,16.09
2023-03-24T21:48:52.952Z,16.09
2023-03-24T21:51:24.204Z,16.09
2023-03-24T21:53:55.835Z,16.08
2023-03-24T21:57:49.995Z,15.84
2023-03-24T22:00:21.348Z,16.05
2023-03-24T22:02:51.741Z,16.05
2023-03-24T22:05:24.683Z,16.04
2023-03-24T22:07:56.065Z,16.03
2023-03-24T22:10:24.381Z,16.03
2023-03-24T22:12:53.327Z,16.02
2023-03-24T22:15:22.604Z,16.02
2023-03-24T22:17:51.141Z,16.04
2023-03-24T22:20:28.333Z,16.04
2023-03-24T22:23:03.435Z,16.03
2023-03-24T22:25:34.379Z,16.04
2023-03-24T22:28:03.185Z,16.04
2023-03-24T22:30:32.405Z,16.03
2023-03-24T22:33:01.427Z,16.04
2023-03-24T22:35:29.728Z,16.03
2023-03-24T22:37:58.112Z,16.04
2023-03-24T22:40:26.042Z,16.03
2023-03-24T22:42:54.481Z,16.05
2023-03-24T22:45:22.711Z,16.05
2023-03-24T22:47:50.682Z,16.05
2023-03-24T22:50:18.763Z,16.08
2023-03-24T22:52:47.480Z,16.09
2023-03-24T22:55:16.268Z,16.12
2023-03-24T22:57:44.185Z,16.14
2023-03-24T23:00:14.693Z,16.17
2023-03-24T23:02:43.007Z,16.19
2023-03-24T23:05:11.260Z,16.21
2023-03-24T23:07:42.104Z,16.24
2023-03-24T23:10:11.592Z,16.25
2023-03-24T23:12:45.844Z,16.27
2023-03-24T23:15:17.857Z,16.27
2023-03-24T23:17:46.979Z,16.28
2023-03-24T23:20:15.650Z,16.27
2023-03-24T23:22:43.679Z,16.24
2023-03-24T23:25:14.708Z,16.21
2023-03-24T23:27:43.436Z,16.20
2023-03-24T23:30:12.556Z,16.18
2023-03-24T23:32:41.480Z,16.16
2023-03-24T23:35:10.143Z,16.14
2023-03-24T23:37:39.673Z,16.12
2023-03-24T23:40:13.060Z,16.09
2023-03-24T23:42:44.991Z,16.07
2023-03-24T23:45:18.277Z,16.06
2023-03-24T23:47:49.957Z,16.05
2023-03-24T23:50:19.204Z,16.05
2023-03-24T23:53:06.986Z,16.06
2023-03-24T23:55:36.858Z,16.07
2023-03-24T23:58:05.434Z,16.06
